Search for airport 
image banner adimage banner adimage banner ad
image banner ad

94CL - Loma Linda University Medical Center

Located in Loma Linda, United States

ICAO - 94CL, IATA -

Data provided by Airmate  

General information

Coordinates: N34°3'1" W117°15'51"
Elevation is 1223 feet MSL.
Magnetic variation is 14° East
View others Airports in California

Operational data

Special qualification required
Current time UTC:
Current local time:
Weather at : KSBD - San Bernardino Intl ( 6 km )
METAR: KSBD 210253Z 25006KT 10SM CLR 29/10 A2994
TAF: KSBD 202324Z 2100/2124 26010KT P6SM SKC FM210400 VRB04KT P6SM SKC FM212000 26010KT P6SM SKC
View NOTAMs / SUP AIP / TFR affecting this airport [VIEW]
Communications frequencies: [VIEW]

Runways:

Airport contact information

Address: Loma Linda United States

Satellite view of 94CL